Aeroporto :
LOGIN :

Iscrizione | Disclaimer

   EN    FR    IT 

 










Sommario :    VFR   VFR Marginale   IFR   IFR Intensivo   IFR Molto Intensivo
Visibilità : 
Base nubi : 
>= 8 km
>= 3000ft
5 / 8 km
1000 / 3000 ft
1500m / 5 km
500 / 1000 ft
800 / 1500m
200 / 500 ft
< 800m
< 200 ft
Simboli :   Temporali  Nebbia  Neve Forte  Precipitazioni Forti  Vento > 20 kt
SIGMETs :   Varie  Temporali  Ghiacco  Turbolenza  Onda orograficha  Ceneri Vulcaniche






- Altitudine del aeroporto : 461 ft
- Codice IATA : WIE


ETOU - Wiesbaden Army

ULTIMO METAR :
  • 171756Z AUTO 00000KT 9999 FEW018 BKN027 BKN032 BKN043 OVC080 06/05 A3007 RMK AO2 SLP192 60000 T00640049 10068 20059 52010 $

METARs OBSOLETI :
  • 171746Z AUTO 00000KT 9999 SCT017 BKN031 OVC043 07/05 A3007 RMK AO2 SLP191 $
  • 171706Z AUTO 00000KT 9999 OVC019 07/05 A3007 RMK AO2 OVC V BKN SLP191 $
  • 171636Z AUTO 00000KT 9999 BKN029 BKN040 OVC050 07/05 A3006 RMK AO2 CIG 029V049 SLP188 $
  • 171556Z AUTO 00000KT 9999 SCT035 BKN043 06/05 A3005 RMK AO2 RAB33E42 SLP184 P0000 T00610047 $
  • 171542Z AUTO 00000KT 9999 BKN037 BKN048 BKN120 07/04 A3005 RMK AO2 RAB33E42 SLP184 $
  • 171533Z AUTO 00000KT 9999 -RA SCT037 BKN120 07/04 A3005 RMK AO2 RAB33 SLP184 $

TAF TAF ETOU
Valido dal 17 a 12 ore il 18 a 18 ore UTC


171206Z 1712/1818 19003KT 9999 BKN060 OVC100 620605 QNH3004INS
BECMG 1713/1714 22006KT 9000 -RA BKN015 OVC100 620506 QNH3001INS
BECMG 1715/1716 26006KT 8000 -RA OVC010 620408 QNH3001INS
BECMG 1718/1719 25009KT 9999 NSW BKN020 620402 QNH3003INS
BECMG 1807/1808 21012KT 9000 -SHRA OVC015 610205 QNH3007INS
BECMG 1814/1815 27012KT 9999 NSW BKN030 620305 QNH3020INS TX09/1715Z TN03/1807Z



MetMap, La meteo Aeronautica in un colpo d'occhio ! - Copyright ORBIFLY Dicembre 2007 - Disclaimer

ORBIFLY MET'MAP TEAM :

Programmazione e sviluppo : Alexandra Zaïnal
Concezione : Baudouin d'Aumeries
Aiuto per la programmazione : Marc-Olivier Méhu
Supporto tecnico e logistico : Manuel Goepfert
Aiuto per la traduzione : Arnaldo La Scala

Contatto : metmap@orbifly.com




FONTI E CREDITI :

   NOAA